sensor_id;sensor_type;location;lat;lon;timestamp;temperature;humidity
584;HTU21D;27024;54.068;12.116;2023-06-10T00:00:46;13.69;118.99
584;HTU21D;27024;54.068;12.116;2023-06-10T00:03:15;13.61;118.99
584;HTU21D;27024;54.068;12.116;2023-06-10T00:05:44;13.67;118.99
584;HTU21D;27024;54.068;12.116;2023-06-10T00:08:14;13.66;118.99
584;HTU21D;27024;54.068;12.116;2023-06-10T00:10:44;13.74;118.99
584;HTU21D;27024;54.068;12.116;2023-06-10T00:13:13;13.62;118.99
584;HTU21D;27024;54.068;12.116;2023-06-10T00:15:42;13.65;118.99
584;HTU21D;27024;54.068;12.116;2023-06-10T00:18:10;13.64;118.99
584;HTU21D;27024;54.068;12.116;2023-06-10T00:20:40;13.53;118.99
584;HTU21D;27024;54.068;12.116;2023-06-10T00:23:09;13.64;118.99
584;HTU21D;27024;54.068;12.116;2023-06-10T00:25:38;13.53;118.99
584;HTU21D;27024;54.068;12.116;2023-06-10T00:28:07;13.63;118.99
584;HTU21D;27024;54.068;12.116;2023-06-10T00:30:36;13.49;118.99
584;HTU21D;27024;54.068;12.116;2023-06-10T00:33:05;13.55;118.99
584;HTU21D;27024;54.068;12.116;2023-06-10T00:35:34;13.46;118.99
584;HTU21D;27024;54.068;12.116;2023-06-10T00:38:03;13.37;118.99
584;HTU21D;27024;54.068;12.116;2023-06-10T00:40:39;13.41;118.99
584;HTU21D;27024;54.068;12.116;2023-06-10T00:43:07;13.43;118.99
584;HTU21D;27024;54.068;12.116;2023-06-10T00:45:36;13.49;118.99
584;HTU21D;27024;54.068;12.116;2023-06-10T00:48:05;13.48;118.99
584;HTU21D;27024;54.068;12.116;2023-06-10T00:50:34;13.49;118.99
584;HTU21D;27024;54.068;12.116;2023-06-10T00:53:06;13.50;118.99
584;HTU21D;27024;54.068;12.116;2023-06-10T00:55:35;13.46;118.99
584;HTU21D;27024;54.068;12.116;2023-06-10T00:58:05;13.40;118.99
584;HTU21D;27024;54.068;12.116;2023-06-10T01:00:34;13.44;118.99
584;HTU21D;27024;54.068;12.116;2023-06-10T01:03:04;13.39;118.99
584;HTU21D;27024;54.068;12.116;2023-06-10T01:05:38;13.45;118.99
584;HTU21D;27024;54.068;12.116;2023-06-10T01:08:09;13.41;118.99
584;HTU21D;27024;54.068;12.116;2023-06-10T01:13:20;13.46;118.99
584;HTU21D;27024;54.068;12.116;2023-06-10T01:15:54;13.40;118.99
584;HTU21D;27024;54.068;12.116;2023-06-10T01:18:30;13.43;118.99
584;HTU21D;27024;54.068;12.116;2023-06-10T01:21:00;13.44;118.99
584;HTU21D;27024;54.068;12.116;2023-06-10T01:23:29;13.46;118.99
584;HTU21D;27024;54.068;12.116;2023-06-10T01:26:09;13.43;118.99
584;HTU21D;27024;54.068;12.116;2023-06-10T01:29:28;13.46;118.99
584;HTU21D;27024;54.068;12.116;2023-06-10T01:31:56;13.45;118.99
584;HTU21D;27024;54.068;12.116;2023-06-10T01:34:27;13.34;118.99
584;HTU21D;27024;54.068;12.116;2023-06-10T01:36:58;13.37;118.99
584;HTU21D;27024;54.068;12.116;2023-06-10T01:39:28;13.45;118.99
584;HTU21D;27024;54.068;12.116;2023-06-10T01:41:57;13.46;118.99
584;HTU21D;27024;54.068;12.116;2023-06-10T01:44:26;13.35;118.99
584;HTU21D;27024;54.068;12.116;2023-06-10T01:46:56;13.41;118.99
584;HTU21D;27024;54.068;12.116;2023-06-10T01:49:26;13.35;118.99
584;HTU21D;27024;54.068;12.116;2023-06-10T01:51:58;13.37;118.99
584;HTU21D;27024;54.068;12.116;2023-06-10T01:54:28;13.46;118.99
584;HTU21D;27024;54.068;12.116;2023-06-10T01:56:57;13.41;118.99
584;HTU21D;27024;54.068;12.116;2023-06-10T01:59:27;13.36;118.99
584;HTU21D;27024;54.068;12.116;2023-06-10T02:01:57;13.39;118.99
584;HTU21D;27024;54.068;12.116;2023-06-10T02:04:27;13.40;118.99
584;HTU21D;27024;54.068;12.116;2023-06-10T02:06:57;13.35;118.99
584;HTU21D;27024;54.068;12.116;2023-06-10T02:09:27;13.40;118.99
584;HTU21D;27024;54.068;12.116;2023-06-10T02:11:57;13.29;118.99
584;HTU21D;27024;54.068;12.116;2023-06-10T02:14:27;13.37;118.99
584;HTU21D;27024;54.068;12.116;2023-06-10T02:16:57;13.38;118.99
584;HTU21D;27024;54.068;12.116;2023-06-10T02:19:27;13.35;118.99
584;HTU21D;27024;54.068;12.116;2023-06-10T02:21:57;13.29;118.99
584;HTU21D;27024;54.068;12.116;2023-06-10T02:24:27;13.32;118.99
584;HTU21D;27024;54.068;12.116;2023-06-10T02:26:56;13.33;118.99
584;HTU21D;27024;54.068;12.116;2023-06-10T02:29:26;13.30;118.99
584;HTU21D;27024;54.068;12.116;2023-06-10T02:31:56;13.34;118.99
584;HTU21D;27024;54.068;12.116;2023-06-10T02:34:25;13.34;118.99
584;HTU21D;27024;54.068;12.116;2023-06-10T02:36:54;13.33;118.99
584;HTU21D;27024;54.068;12.116;2023-06-10T02:39:24;13.31;118.99
584;HTU21D;27024;54.068;12.116;2023-06-10T02:41:54;13.32;118.99
584;HTU21D;27024;54.068;12.116;2023-06-10T02:44:24;13.29;118.99
584;HTU21D;27024;54.068;12.116;2023-06-10T02:46:54;13.36;118.99
584;HTU21D;27024;54.068;12.116;2023-06-10T02:49:23;13.30;118.99
584;HTU21D;27024;54.068;12.116;2023-06-10T02:51:55;13.18;118.99
584;HTU21D;27024;54.068;12.116;2023-06-10T02:54:26;13.24;118.99
584;HTU21D;27024;54.068;12.116;2023-06-10T02:56:56;13.32;118.99
584;HTU21D;27024;54.068;12.116;2023-06-10T02:59:26;13.30;118.99
584;HTU21D;27024;54.068;12.116;2023-06-10T03:01:58;13.33;118.99
584;HTU21D;27024;54.068;12.116;2023-06-10T03:04:31;13.32;118.99
584;HTU21D;27024;54.068;12.116;2023-06-10T03:07:00;13.30;118.99
584;HTU21D;27024;54.068;12.116;2023-06-10T03:09:33;13.31;118.99
584;HTU21D;27024;54.068;12.116;2023-06-10T03:12:00;13.27;118.99
584;HTU21D;27024;54.068;12.116;2023-06-10T03:14:29;13.32;118.99
584;HTU21D;27024;54.068;12.116;2023-06-10T03:16:58;13.32;118.99
584;HTU21D;27024;54.068;12.116;2023-06-10T03:19:29;13.36;118.99
584;HTU21D;27024;54.068;12.116;2023-06-10T03:22:10;13.29;118.99
584;HTU21D;27024;54.068;12.116;2023-06-10T03:24:41;13.38;118.99
584;HTU21D;27024;54.068;12.116;2023-06-10T03:27:11;13.40;118.99
584;HTU21D;27024;54.068;12.116;2023-06-10T03:29:40;13.36;118.99
584;HTU21D;27024;54.068;12.116;2023-06-10T03:32:10;13.40;118.99
584;HTU21D;27024;54.068;12.116;2023-06-10T03:34:40;13.41;118.99
584;HTU21D;27024;54.068;12.116;2023-06-10T03:37:10;13.44;118.99
584;HTU21D;27024;54.068;12.116;2023-06-10T03:39:40;13.46;118.99
584;HTU21D;27024;54.068;12.116;2023-06-10T03:42:10;13.54;118.99
584;HTU21D;27024;54.068;12.116;2023-06-10T03:44:39;13.52;118.99
584;HTU21D;27024;54.068;12.116;2023-06-10T03:47:09;13.60;118.99
584;HTU21D;27024;54.068;12.116;2023-06-10T03:49:39;13.53;118.99
584;HTU21D;27024;54.068;12.116;2023-06-10T03:52:10;13.58;118.99
584;HTU21D;27024;54.068;12.116;2023-06-10T03:54:39;13.67;118.99
584;HTU21D;27024;54.068;12.116;2023-06-10T03:57:09;13.67;118.99
584;HTU21D;27024;54.068;12.116;2023-06-10T03:59:39;13.61;118.99
584;HTU21D;27024;54.068;12.116;2023-06-10T04:02:09;13.74;118.99
584;HTU21D;27024;54.068;12.116;2023-06-10T04:04:40;13.68;118.99
584;HTU21D;27024;54.068;12.116;2023-06-10T04:07:13;13.68;118.99
584;HTU21D;27024;54.068;12.116;2023-06-10T04:09:43;13.80;118.99
584;HTU21D;27024;54.068;12.116;2023-06-10T04:12:13;13.84;118.99
584;HTU21D;27024;54.068;12.116;2023-06-10T04:14:44;13.83;118.99
584;HTU21D;27024;54.068;12.116;2023-06-10T04:17:13;13.89;118.99
584;HTU21D;27024;54.068;12.116;2023-06-10T04:19:43;13.80;118.99
584;HTU21D;27024;54.068;12.116;2023-06-10T04:22:13;13.95;118.99
584;HTU21D;27024;54.068;12.116;2023-06-10T04:24:43;14.07;118.99
584;HTU21D;27024;54.068;12.116;2023-06-10T04:27:13;14.10;118.99
584;HTU21D;27024;54.068;12.116;2023-06-10T04:29:43;14.14;118.99
584;HTU21D;27024;54.068;12.116;2023-06-10T04:32:13;14.15;118.99
584;HTU21D;27024;54.068;12.116;2023-06-10T04:34:43;14.20;118.99
584;HTU21D;27024;54.068;12.116;2023-06-10T04:37:12;14.37;118.99
584;HTU21D;27024;54.068;12.116;2023-06-10T04:39:42;14.52;118.99
584;HTU21D;27024;54.068;12.116;2023-06-10T04:42:12;14.56;118.99
584;HTU21D;27024;54.068;12.116;2023-06-10T04:44:42;14.80;118.99
584;HTU21D;27024;54.068;12.116;2023-06-10T04:47:12;14.67;118.99
584;HTU21D;27024;54.068;12.116;2023-06-10T04:49:42;14.93;118.99
584;HTU21D;27024;54.068;12.116;2023-06-10T04:52:12;15.04;118.99
584;HTU21D;27024;54.068;12.116;2023-06-10T04:54:47;14.88;118.99
584;HTU21D;27024;54.068;12.116;2023-06-10T04:57:18;15.08;118.99
584;HTU21D;27024;54.068;12.116;2023-06-10T04:59:48;15.34;118.99
584;HTU21D;27024;54.068;12.116;2023-06-10T05:02:17;15.37;118.99
584;HTU21D;27024;54.068;12.116;2023-06-10T05:04:48;15.51;118.99
584;HTU21D;27024;54.068;12.116;2023-06-10T05:07:17;15.56;118.99
584;HTU21D;27024;54.068;12.116;2023-06-10T05:09:47;15.56;118.99
584;HTU21D;27024;54.068;12.116;2023-06-10T05:12:17;15.82;118.99
584;HTU21D;27024;54.068;12.116;2023-06-10T05:14:47;15.93;118.99
584;HTU21D;27024;54.068;12.116;2023-06-10T05:17:17;16.14;118.99
584;HTU21D;27024;54.068;12.116;2023-06-10T05:19:47;16.25;118.99
584;HTU21D;27024;54.068;12.116;2023-06-10T05:22:17;16.37;118.99
584;HTU21D;27024;54.068;12.116;2023-06-10T05:24:47;16.55;118.99
584;HTU21D;27024;54.068;12.116;2023-06-10T05:27:17;17.04;118.99
584;HTU21D;27024;54.068;12.116;2023-06-10T05:29:44;16.84;118.99
584;HTU21D;27024;54.068;12.116;2023-06-10T05:32:11;17.40;118.99
584;HTU21D;27024;54.068;12.116;2023-06-10T05:34:38;17.62;118.99
584;HTU21D;27024;54.068;12.116;2023-06-10T05:37:05;17.41;118.99
584;HTU21D;27024;54.068;12.116;2023-06-10T05:39:32;17.09;118.99
584;HTU21D;27024;54.068;12.116;2023-06-10T05:41:59;17.23;118.99
584;HTU21D;27024;54.068;12.116;2023-06-10T05:44:27;17.53;118.99
584;HTU21D;27024;54.068;12.116;2023-06-10T05:46:55;17.44;118.99
584;HTU21D;27024;54.068;12.116;2023-06-10T05:49:22;17.41;118.99
584;HTU21D;27024;54.068;12.116;2023-06-10T05:51:53;17.95;118.99
584;HTU21D;27024;54.068;12.116;2023-06-10T05:54:20;17.36;118.99
584;HTU21D;27024;54.068;12.116;2023-06-10T05:56:49;17.28;118.99
584;HTU21D;27024;54.068;12.116;2023-06-10T05:59:16;18.43;118.99
584;HTU21D;27024;54.068;12.116;2023-06-10T06:01:43;18.56;118.99
584;HTU21D;27024;54.068;12.116;2023-06-10T06:04:10;18.71;118.99
584;HTU21D;27024;54.068;12.116;2023-06-10T06:06:38;18.53;118.99
584;HTU21D;27024;54.068;12.116;2023-06-10T06:09:06;18.26;118.99
584;HTU21D;27024;54.068;12.116;2023-06-10T06:11:34;17.88;118.99
584;HTU21D;27024;54.068;12.116;2023-06-10T06:14:02;18.20;118.99
584;HTU21D;27024;54.068;12.116;2023-06-10T06:16:28;18.38;118.99
584;HTU21D;27024;54.068;12.116;2023-06-10T06:18:56;18.30;118.99
584;HTU21D;27024;54.068;12.116;2023-06-10T06:21:22;18.48;118.99
584;HTU21D;27024;54.068;12.116;2023-06-10T06:23:49;18.65;118.99
584;HTU21D;27024;54.068;12.116;2023-06-10T06:26:16;18.71;118.99
584;HTU21D;27024;54.068;12.116;2023-06-10T06:28:43;18.48;118.99
584;HTU21D;27024;54.068;12.116;2023-06-10T06:31:10;18.64;118.99
584;HTU21D;27024;54.068;12.116;2023-06-10T06:33:37;18.74;118.99
584;HTU21D;27024;54.068;12.116;2023-06-10T06:36:04;18.56;118.99
584;HTU21D;27024;54.068;12.116;2023-06-10T06:38:31;18.78;118.99
584;HTU21D;27024;54.068;12.116;2023-06-10T06:40:58;18.93;118.99
584;HTU21D;27024;54.068;12.116;2023-06-10T06:43:29;19.02;118.99
584;HTU21D;27024;54.068;12.116;2023-06-10T06:45:59;19.10;118.99
584;HTU21D;27024;54.068;12.116;2023-06-10T06:48:26;19.61;118.99
584;HTU21D;27024;54.068;12.116;2023-06-10T06:50:53;19.77;118.99
584;HTU21D;27024;54.068;12.116;2023-06-10T06:53:22;19.44;118.99
584;HTU21D;27024;54.068;12.116;2023-06-10T06:55:49;19.88;118.99
584;HTU21D;27024;54.068;12.116;2023-06-10T06:58:16;19.97;118.99
584;HTU21D;27024;54.068;12.116;2023-06-10T07:00:43;20.24;118.99
584;HTU21D;27024;54.068;12.116;2023-06-10T07:03:10;20.25;118.99
584;HTU21D;27024;54.068;12.116;2023-06-10T07:05:38;20.20;118.99
584;HTU21D;27024;54.068;12.116;2023-06-10T07:08:05;20.42;118.99
584;HTU21D;27024;54.068;12.116;2023-06-10T07:10:32;20.59;118.99
584;HTU21D;27024;54.068;12.116;2023-06-10T07:12:59;20.14;118.99
584;HTU21D;27024;54.068;12.116;2023-06-10T07:15:26;20.56;118.99
584;HTU21D;27024;54.068;12.116;2023-06-10T07:17:53;20.48;118.99
584;HTU21D;27024;54.068;12.116;2023-06-10T07:20:20;20.51;118.99
584;HTU21D;27024;54.068;12.116;2023-06-10T07:22:47;20.96;118.99
584;HTU21D;27024;54.068;12.116;2023-06-10T07:25:14;20.94;118.99
584;HTU21D;27024;54.068;12.116;2023-06-10T07:27:42;21.01;118.99
584;HTU21D;27024;54.068;12.116;2023-06-10T07:30:09;20.83;118.99
584;HTU21D;27024;54.068;12.116;2023-06-10T07:32:37;21.23;118.99
584;HTU21D;27024;54.068;12.116;2023-06-10T07:35:08;21.31;118.99
584;HTU21D;27024;54.068;12.116;2023-06-10T07:37:36;21.52;118.99
584;HTU21D;27024;54.068;12.116;2023-06-10T07:40:03;21.23;118.99
584;HTU21D;27024;54.068;12.116;2023-06-10T07:42:32;21.80;118.99
584;HTU21D;27024;54.068;12.116;2023-06-10T07:44:59;22.09;118.99
584;HTU21D;27024;54.068;12.116;2023-06-10T07:47:26;22.11;118.99
584;HTU21D;27024;54.068;12.116;2023-06-10T07:49:53;22.39;118.99
584;HTU21D;27024;54.068;12.116;2023-06-10T07:52:20;22.55;118.99
584;HTU21D;27024;54.068;12.116;2023-06-10T07:54:47;22.48;118.99
584;HTU21D;27024;54.068;12.116;2023-06-10T07:57:15;22.53;118.99
584;HTU21D;27024;54.068;12.116;2023-06-10T07:59:42;23.08;118.99
584;HTU21D;27024;54.068;12.116;2023-06-10T08:02:11;22.35;118.99
584;HTU21D;27024;54.068;12.116;2023-06-10T08:04:38;22.38;118.99
584;HTU21D;27024;54.068;12.116;2023-06-10T08:07:05;22.70;118.99
584;HTU21D;27024;54.068;12.116;2023-06-10T08:09:32;22.60;118.99
584;HTU21D;27024;54.068;12.116;2023-06-10T08:11:59;22.83;118.99
584;HTU21D;27024;54.068;12.116;2023-06-10T08:14:25;22.47;118.99
584;HTU21D;27024;54.068;12.116;2023-06-10T08:16:53;22.44;118.99
584;HTU21D;27024;54.068;12.116;2023-06-10T08:19:20;22.71;118.99
584;HTU21D;27024;54.068;12.116;2023-06-10T08:21:46;22.48;118.99
584;HTU21D;27024;54.068;12.116;2023-06-10T08:24:13;22.54;118.99
584;HTU21D;27024;54.068;12.116;2023-06-10T08:26:43;22.69;118.99
584;HTU21D;27024;54.068;12.116;2023-06-10T08:29:12;23.10;118.99
584;HTU21D;27024;54.068;12.116;2023-06-10T08:31:42;22.99;118.99
584;HTU21D;27024;54.068;12.116;2023-06-10T08:34:10;23.14;118.99
584;HTU21D;27024;54.068;12.116;2023-06-10T08:36:37;22.95;118.99
584;HTU21D;27024;54.068;12.116;2023-06-10T08:39:03;22.94;118.99
584;HTU21D;27024;54.068;12.116;2023-06-10T08:41:35;23.06;118.99
584;HTU21D;27024;54.068;12.116;2023-06-10T08:44:17;23.12;118.99
584;HTU21D;27024;54.068;12.116;2023-06-10T08:46:47;22.87;118.99
584;HTU21D;27024;54.068;12.116;2023-06-10T08:49:18;22.98;118.99
584;HTU21D;27024;54.068;12.116;2023-06-10T08:51:50;23.13;118.99
584;HTU21D;27024;54.068;12.116;2023-06-10T08:54:27;22.83;118.99
584;HTU21D;27024;54.068;12.116;2023-06-10T08:56:55;23.34;118.99
584;HTU21D;27024;54.068;12.116;2023-06-10T08:59:24;23.56;118.99
584;HTU21D;27024;54.068;12.116;2023-06-10T09:01:52;23.66;118.99
584;HTU21D;27024;54.068;12.116;2023-06-10T09:04:19;23.47;118.99
584;HTU21D;27024;54.068;12.116;2023-06-10T09:06:49;23.94;118.99
584;HTU21D;27024;54.068;12.116;2023-06-10T09:09:17;24.25;118.99
584;HTU21D;27024;54.068;12.116;2023-06-10T09:11:46;24.97;118.99
584;HTU21D;27024;54.068;12.116;2023-06-10T09:14:13;24.46;118.99
584;HTU21D;27024;54.068;12.116;2023-06-10T09:16:40;24.27;118.99
584;HTU21D;27024;54.068;12.116;2023-06-10T09:19:07;25.08;118.99
584;HTU21D;27024;54.068;12.116;2023-06-10T09:21:34;24.99;118.99
584;HTU21D;27024;54.068;12.116;2023-06-10T09:24:05;24.24;118.99
584;HTU21D;27024;54.068;12.116;2023-06-10T09:26:32;24.35;118.99
584;HTU21D;27024;54.068;12.116;2023-06-10T09:29:04;25.31;118.99
584;HTU21D;27024;54.068;12.116;2023-06-10T09:31:34;25.57;118.99
584;HTU21D;27024;54.068;12.116;2023-06-10T09:36:33;24.01;118.99
584;HTU21D;27024;54.068;12.116;2023-06-10T09:39:00;24.91;118.99
584;HTU21D;27024;54.068;12.116;2023-06-10T09:41:39;25.29;118.99
584;HTU21D;27024;54.068;12.116;2023-06-10T09:44:15;25.91;118.99
584;HTU21D;27024;54.068;12.116;2023-06-10T09:46:45;26.04;118.99
584;HTU21D;27024;54.068;12.116;2023-06-10T09:49:12;25.82;118.99
584;HTU21D;27024;54.068;12.116;2023-06-10T09:51:52;25.91;118.99
584;HTU21D;27024;54.068;12.116;2023-06-10T09:54:20;26.30;118.99
584;HTU21D;27024;54.068;12.116;2023-06-10T09:56:51;26.19;118.99
584;HTU21D;27024;54.068;12.116;2023-06-10T09:59:28;26.60;118.99
584;HTU21D;27024;54.068;12.116;2023-06-10T10:01:57;26.18;118.99
584;HTU21D;27024;54.068;12.116;2023-06-10T10:04:25;26.62;118.99
584;HTU21D;27024;54.068;12.116;2023-06-10T10:06:52;26.56;118.99
584;HTU21D;27024;54.068;12.116;2023-06-10T10:09:19;27.46;118.99
584;HTU21D;27024;54.068;12.116;2023-06-10T10:11:47;27.16;118.99
584;HTU21D;27024;54.068;12.116;2023-06-10T10:14:16;27.60;118.99
584;HTU21D;27024;54.068;12.116;2023-06-10T10:16:44;27.52;118.99
584;HTU21D;27024;54.068;12.116;2023-06-10T10:19:16;27.73;118.99
584;HTU21D;27024;54.068;12.116;2023-06-10T10:21:53;27.64;118.99
584;HTU21D;27024;54.068;12.116;2023-06-10T10:24:38;27.54;118.99
584;HTU21D;27024;54.068;12.116;2023-06-10T10:27:11;27.49;118.99
584;HTU21D;27024;54.068;12.116;2023-06-10T10:29:42;27.72;118.99
584;HTU21D;27024;54.068;12.116;2023-06-10T10:32:13;27.88;118.99
584;HTU21D;27024;54.068;12.116;2023-06-10T10:37:27;28.37;118.99
584;HTU21D;27024;54.068;12.116;2023-06-10T10:39:55;28.46;118.99
584;HTU21D;27024;54.068;12.116;2023-06-10T10:42:23;28.15;118.99
584;HTU21D;27024;54.068;12.116;2023-06-10T10:44:51;28.13;118.99
584;HTU21D;27024;54.068;12.116;2023-06-10T10:47:21;28.60;118.99
584;HTU21D;27024;54.068;12.116;2023-06-10T10:49:51;28.43;118.99
584;HTU21D;27024;54.068;12.116;2023-06-10T10:52:19;28.68;118.99
584;HTU21D;27024;54.068;12.116;2023-06-10T10:54:46;28.63;118.99
584;HTU21D;27024;54.068;12.116;2023-06-10T10:57:23;28.32;118.99
584;HTU21D;27024;54.068;12.116;2023-06-10T10:59:51;28.80;118.99
584;HTU21D;27024;54.068;12.116;2023-06-10T11:02:40;28.13;118.99
584;HTU21D;27024;54.068;12.116;2023-06-10T11:05:07;28.59;118.99
584;HTU21D;27024;54.068;12.116;2023-06-10T11:07:35;29.00;118.99
584;HTU21D;27024;54.068;12.116;2023-06-10T11:10:07;29.17;118.99
584;HTU21D;27024;54.068;12.116;2023-06-10T11:13:10;29.45;110.01
584;HTU21D;27024;54.068;12.116;2023-06-10T11:15:49;28.77;107.18
584;HTU21D;27024;54.068;12.116;2023-06-10T11:26:15;29.28;80.99
584;HTU21D;27024;54.068;12.116;2023-06-10T11:31:20;29.19;50.90
584;HTU21D;27024;54.068;12.116;2023-06-10T11:33:53;29.38;52.71
584;HTU21D;27024;54.068;12.116;2023-06-10T11:36:21;29.58;50.85
584;HTU21D;27024;54.068;12.116;2023-06-10T11:38:48;29.09;37.78
584;HTU21D;27024;54.068;12.116;2023-06-10T11:41:15;29.26;35.15
584;HTU21D;27024;54.068;12.116;2023-06-10T11:43:44;29.32;38.44
584;HTU21D;27024;54.068;12.116;2023-06-10T11:46:13;29.03;32.24
584;HTU21D;27024;54.068;12.116;2023-06-10T11:48:57;29.36;21.47
584;HTU21D;27024;54.068;12.116;2023-06-10T11:51:28;29.19;10.98
584;HTU21D;27024;54.068;12.116;2023-06-10T11:53:55;28.99;14.42
584;HTU21D;27024;54.068;12.116;2023-06-10T11:56:24;28.84;-6.00
584;HTU21D;27024;54.068;12.116;2023-06-10T12:01:33;28.79;-4.10
584;HTU21D;27024;54.068;12.116;2023-06-10T12:04:02;28.91;-6.00
584;HTU21D;27024;54.068;12.116;2023-06-10T12:06:39;28.68;-6.00
584;HTU21D;27024;54.068;12.116;2023-06-10T12:09:13;28.68;-6.00
584;HTU21D;27024;54.068;12.116;2023-06-10T12:12:01;28.58;-6.00
584;HTU21D;27024;54.068;12.116;2023-06-10T12:20:09;28.90;-6.00
584;HTU21D;27024;54.068;12.116;2023-06-10T12:22:50;29.01;-6.00
584;HTU21D;27024;54.068;12.116;2023-06-10T12:25:24;28.77;-6.00
584;HTU21D;27024;54.068;12.116;2023-06-10T12:27:54;28.97;-6.00
584;HTU21D;27024;54.068;12.116;2023-06-10T12:30:26;28.95;-6.00
584;HTU21D;27024;54.068;12.116;2023-06-10T12:32:54;28.80;-6.00
584;HTU21D;27024;54.068;12.116;2023-06-10T12:35:26;28.91;-6.00
584;HTU21D;27024;54.068;12.116;2023-06-10T12:40:32;29.21;-6.00
584;HTU21D;27024;54.068;12.116;2023-06-10T12:43:00;29.22;-6.00
584;HTU21D;27024;54.068;12.116;2023-06-10T12:45:37;29.67;-6.00
584;HTU21D;27024;54.068;12.116;2023-06-10T12:48:10;29.56;-6.00
584;HTU21D;27024;54.068;12.116;2023-06-10T12:50:40;29.96;-6.00
584;HTU21D;27024;54.068;12.116;2023-06-10T12:53:07;29.42;-6.00
584;HTU21D;27024;54.068;12.116;2023-06-10T12:55:34;29.26;-6.00
584;HTU21D;27024;54.068;12.116;2023-06-10T12:58:02;29.39;-6.00
584;HTU21D;27024;54.068;12.116;2023-06-10T13:00:30;29.56;-6.00
584;HTU21D;27024;54.068;12.116;2023-06-10T13:02:59;29.46;-6.00
584;HTU21D;27024;54.068;12.116;2023-06-10T13:05:28;29.81;-6.00
584;HTU21D;27024;54.068;12.116;2023-06-10T13:07:55;29.73;-6.00
584;HTU21D;27024;54.068;12.116;2023-06-10T13:10:22;29.67;-6.00
584;HTU21D;27024;54.068;12.116;2023-06-10T13:12:52;30.07;-6.00
584;HTU21D;27024;54.068;12.116;2023-06-10T13:15:19;29.54;-6.00
584;HTU21D;27024;54.068;12.116;2023-06-10T13:17:46;29.37;-6.00
584;HTU21D;27024;54.068;12.116;2023-06-10T13:20:16;29.35;-6.00
584;HTU21D;27024;54.068;12.116;2023-06-10T13:22:43;29.09;-6.00
584;HTU21D;27024;54.068;12.116;2023-06-10T13:25:10;29.19;-6.00
584;HTU21D;27024;54.068;12.116;2023-06-10T13:27:38;29.45;-6.00
584;HTU21D;27024;54.068;12.116;2023-06-10T13:30:06;29.31;-6.00
584;HTU21D;27024;54.068;12.116;2023-06-10T13:32:33;29.37;-6.00
584;HTU21D;27024;54.068;12.116;2023-06-10T13:35:00;29.22;-6.00
584;HTU21D;27024;54.068;12.116;2023-06-10T13:37:31;29.42;-6.00
584;HTU21D;27024;54.068;12.116;2023-06-10T13:39:57;29.29;-6.00
584;HTU21D;27024;54.068;12.116;2023-06-10T13:42:24;29.14;-6.00
584;HTU21D;27024;54.068;12.116;2023-06-10T13:44:53;29.74;-6.00
584;HTU21D;27024;54.068;12.116;2023-06-10T13:47:20;29.50;-6.00
584;HTU21D;27024;54.068;12.116;2023-06-10T13:49:47;28.89;-6.00
584;HTU21D;27024;54.068;12.116;2023-06-10T13:52:14;28.95;-6.00
584;HTU21D;27024;54.068;12.116;2023-06-10T13:54:41;28.98;-6.00
584;HTU21D;27024;54.068;12.116;2023-06-10T13:57:08;29.15;-6.00
584;HTU21D;27024;54.068;12.116;2023-06-10T13:59:37;28.97;-6.00
584;HTU21D;27024;54.068;12.116;2023-06-10T14:02:04;29.28;-6.00
584;HTU21D;27024;54.068;12.116;2023-06-10T14:04:32;28.82;-6.00
584;HTU21D;27024;54.068;12.116;2023-06-10T14:06:59;28.78;-6.00
584;HTU21D;27024;54.068;12.116;2023-06-10T14:09:26;28.89;-6.00
584;HTU21D;27024;54.068;12.116;2023-06-10T14:11:53;28.83;-6.00
584;HTU21D;27024;54.068;12.116;2023-06-10T14:14:20;28.76;-6.00
584;HTU21D;27024;54.068;12.116;2023-06-10T14:16:49;28.88;-6.00
584;HTU21D;27024;54.068;12.116;2023-06-10T14:19:16;28.70;-6.00
584;HTU21D;27024;54.068;12.116;2023-06-10T14:21:42;28.83;-6.00
584;HTU21D;27024;54.068;12.116;2023-06-10T14:24:10;29.06;-6.00
584;HTU21D;27024;54.068;12.116;2023-06-10T14:26:36;28.34;-6.00
584;HTU21D;27024;54.068;12.116;2023-06-10T14:29:04;28.91;-6.00
584;HTU21D;27024;54.068;12.116;2023-06-10T14:31:30;29.35;-6.00
584;HTU21D;27024;54.068;12.116;2023-06-10T14:33:57;29.29;-6.00
584;HTU21D;27024;54.068;12.116;2023-06-10T14:36:25;29.07;-6.00
584;HTU21D;27024;54.068;12.116;2023-06-10T14:38:52;28.99;-6.00
584;HTU21D;27024;54.068;12.116;2023-06-10T14:41:20;29.21;-6.00
584;HTU21D;27024;54.068;12.116;2023-06-10T14:43:48;29.22;-6.00
584;HTU21D;27024;54.068;12.116;2023-06-10T14:46:16;28.74;-6.00
584;HTU21D;27024;54.068;12.116;2023-06-10T14:48:43;28.80;-6.00
584;HTU21D;27024;54.068;12.116;2023-06-10T14:51:09;29.11;-6.00
584;HTU21D;27024;54.068;12.116;2023-06-10T14:53:36;29.07;-6.00
584;HTU21D;27024;54.068;12.116;2023-06-10T14:56:03;28.74;-6.00
584;HTU21D;27024;54.068;12.116;2023-06-10T14:58:30;28.62;-6.00
584;HTU21D;27024;54.068;12.116;2023-06-10T15:00:57;28.55;-6.00
584;HTU21D;27024;54.068;12.116;2023-06-10T15:03:24;28.29;-6.00
584;HTU21D;27024;54.068;12.116;2023-06-10T15:05:51;28.33;-6.00
584;HTU21D;27024;54.068;12.116;2023-06-10T15:08:18;28.70;-6.00
584;HTU21D;27024;54.068;12.116;2023-06-10T15:10:45;28.58;-6.00
584;HTU21D;27024;54.068;12.116;2023-06-10T15:13:12;28.46;-6.00
584;HTU21D;27024;54.068;12.116;2023-06-10T15:15:39;27.95;-6.00
584;HTU21D;27024;54.068;12.116;2023-06-10T15:18:06;27.88;-6.00
584;HTU21D;27024;54.068;12.116;2023-06-10T15:20:33;28.18;-6.00
584;HTU21D;27024;54.068;12.116;2023-06-10T15:23:00;28.20;-6.00
584;HTU21D;27024;54.068;12.116;2023-06-10T15:25:28;27.99;-6.00
584;HTU21D;27024;54.068;12.116;2023-06-10T15:27:58;28.17;-6.00
584;HTU21D;27024;54.068;12.116;2023-06-10T15:30:25;27.73;-6.00
584;HTU21D;27024;54.068;12.116;2023-06-10T15:32:52;27.53;-6.00
584;HTU21D;27024;54.068;12.116;2023-06-10T15:35:19;27.73;-6.00
584;HTU21D;27024;54.068;12.116;2023-06-10T15:37:46;27.71;-6.00
584;HTU21D;27024;54.068;12.116;2023-06-10T15:40:13;27.12;-6.00
584;HTU21D;27024;54.068;12.116;2023-06-10T15:42:40;27.88;-6.00
584;HTU21D;27024;54.068;12.116;2023-06-10T15:45:07;27.29;-6.00
584;HTU21D;27024;54.068;12.116;2023-06-10T15:47:35;27.15;-6.00
584;HTU21D;27024;54.068;12.116;2023-06-10T15:50:02;26.80;-6.00
584;HTU21D;27024;54.068;12.116;2023-06-10T15:52:29;27.14;-6.00
584;HTU21D;27024;54.068;12.116;2023-06-10T15:54:56;26.80;-6.00
584;HTU21D;27024;54.068;12.116;2023-06-10T15:57:23;26.56;-6.00
584;HTU21D;27024;54.068;12.116;2023-06-10T15:59:53;26.05;-6.00
584;HTU21D;27024;54.068;12.116;2023-06-10T16:02:20;25.74;-6.00